sensor_id;sensor_type;location;lat;lon;timestamp;temperature;humidity
20182;DHT22;10250;50.756;6.172;2024-03-02T00:01:33;8.30;1.00
20182;DHT22;10250;50.756;6.172;2024-03-02T00:03:34;8.30;1.00
20182;DHT22;10250;50.756;6.172;2024-03-02T00:05:35;8.40;1.00
20182;DHT22;10250;50.756;6.172;2024-03-02T00:07:35;8.40;1.00
20182;DHT22;10250;50.756;6.172;2024-03-02T00:09:36;8.30;1.00
20182;DHT22;10250;50.756;6.172;2024-03-02T00:11:37;8.40;1.00
20182;DHT22;10250;50.756;6.172;2024-03-02T00:13:37;8.40;1.00
20182;DHT22;10250;50.756;6.172;2024-03-02T00:15:46;8.40;1.00
20182;DHT22;10250;50.756;6.172;2024-03-02T00:17:53;8.40;1.00
20182;DHT22;10250;50.756;6.172;2024-03-02T00:19:53;8.40;1.00
20182;DHT22;10250;50.756;6.172;2024-03-02T00:21:54;8.50;1.00
20182;DHT22;10250;50.756;6.172;2024-03-02T00:23:55;8.50;1.00
20182;DHT22;10250;50.756;6.172;2024-03-02T00:25:57;8.40;1.00
20182;DHT22;10250;50.756;6.172;2024-03-02T00:27:58;8.40;1.00
20182;DHT22;10250;50.756;6.172;2024-03-02T00:30:00;8.50;1.00
20182;DHT22;10250;50.756;6.172;2024-03-02T00:32:01;8.40;1.00
20182;DHT22;10250;50.756;6.172;2024-03-02T00:34:05;8.50;1.00
20182;DHT22;10250;50.756;6.172;2024-03-02T00:36:07;8.40;1.00
20182;DHT22;10250;50.756;6.172;2024-03-02T00:38:08;8.50;1.00
20182;DHT22;10250;50.756;6.172;2024-03-02T00:40:09;8.50;1.00
20182;DHT22;10250;50.756;6.172;2024-03-02T00:42:12;8.50;1.00
20182;DHT22;10250;50.756;6.172;2024-03-02T00:44:13;8.50;1.00
20182;DHT22;10250;50.756;6.172;2024-03-02T00:46:17;8.50;1.00
20182;DHT22;10250;50.756;6.172;2024-03-02T00:48:18;8.50;1.00
20182;DHT22;10250;50.756;6.172;2024-03-02T00:50:19;8.50;1.00
20182;DHT22;10250;50.756;6.172;2024-03-02T00:52:20;8.50;1.00
20182;DHT22;10250;50.756;6.172;2024-03-02T00:54:26;8.50;1.00
20182;DHT22;10250;50.756;6.172;2024-03-02T00:56:27;8.50;1.00
20182;DHT22;10250;50.756;6.172;2024-03-02T00:58:27;8.50;1.00
20182;DHT22;10250;50.756;6.172;2024-03-02T01:00:28;8.50;1.00
20182;DHT22;10250;50.756;6.172;2024-03-02T01:02:28;8.50;1.00
20182;DHT22;10250;50.756;6.172;2024-03-02T01:04:29;8.50;1.00
20182;DHT22;10250;50.756;6.172;2024-03-02T01:06:30;8.50;1.00
20182;DHT22;10250;50.756;6.172;2024-03-02T01:08:31;8.50;1.00
20182;DHT22;10250;50.756;6.172;2024-03-02T01:10:31;8.50;1.00
20182;DHT22;10250;50.756;6.172;2024-03-02T01:12:32;8.50;1.00
20182;DHT22;10250;50.756;6.172;2024-03-02T01:14:32;8.50;1.00
20182;DHT22;10250;50.756;6.172;2024-03-02T01:16:33;8.50;1.00
20182;DHT22;10250;50.756;6.172;2024-03-02T01:18:33;8.50;1.00
20182;DHT22;10250;50.756;6.172;2024-03-02T01:20:34;8.50;1.00
20182;DHT22;10250;50.756;6.172;2024-03-02T01:22:35;8.50;1.00
20182;DHT22;10250;50.756;6.172;2024-03-02T01:24:36;8.50;1.00
20182;DHT22;10250;50.756;6.172;2024-03-02T01:26:36;8.50;1.00
20182;DHT22;10250;50.756;6.172;2024-03-02T01:28:37;8.50;1.00
20182;DHT22;10250;50.756;6.172;2024-03-02T01:30:37;8.50;1.00
20182;DHT22;10250;50.756;6.172;2024-03-02T01:32:38;8.50;1.00
20182;DHT22;10250;50.756;6.172;2024-03-02T01:34:39;8.50;1.00
20182;DHT22;10250;50.756;6.172;2024-03-02T01:36:39;8.50;1.00
20182;DHT22;10250;50.756;6.172;2024-03-02T01:38:40;8.50;1.00
20182;DHT22;10250;50.756;6.172;2024-03-02T01:40:42;8.50;1.00
20182;DHT22;10250;50.756;6.172;2024-03-02T01:42:44;8.50;1.00
20182;DHT22;10250;50.756;6.172;2024-03-02T01:44:45;8.50;1.00
20182;DHT22;10250;50.756;6.172;2024-03-02T01:46:45;8.50;1.00
20182;DHT22;10250;50.756;6.172;2024-03-02T01:48:46;8.50;1.00
20182;DHT22;10250;50.756;6.172;2024-03-02T01:50:48;8.50;1.00
20182;DHT22;10250;50.756;6.172;2024-03-02T01:52:48;8.50;1.00
20182;DHT22;10250;50.756;6.172;2024-03-02T01:54:49;8.50;1.00
20182;DHT22;10250;50.756;6.172;2024-03-02T01:56:49;8.50;1.00
20182;DHT22;10250;50.756;6.172;2024-03-02T01:58:50;8.50;1.00
20182;DHT22;10250;50.756;6.172;2024-03-02T02:00:51;8.50;1.00
20182;DHT22;10250;50.756;6.172;2024-03-02T02:02:51;8.50;1.00
20182;DHT22;10250;50.756;6.172;2024-03-02T02:04:52;8.40;1.00
20182;DHT22;10250;50.756;6.172;2024-03-02T02:06:53;8.40;48.30
20182;DHT22;10250;50.756;6.172;2024-03-02T02:08:54;8.40;99.90
20182;DHT22;10250;50.756;6.172;2024-03-02T02:10:55;8.30;1.00
20182;DHT22;10250;50.756;6.172;2024-03-02T02:12:55;8.40;1.00
20182;DHT22;10250;50.756;6.172;2024-03-02T02:14:56;8.30;1.00
20182;DHT22;10250;50.756;6.172;2024-03-02T02:16:56;8.30;1.00
20182;DHT22;10250;50.756;6.172;2024-03-02T02:18:57;8.30;57.60
20182;DHT22;10250;50.756;6.172;2024-03-02T02:20:58;8.20;99.90
20182;DHT22;10250;50.756;6.172;2024-03-02T02:23:01;8.30;99.90
20182;DHT22;10250;50.756;6.172;2024-03-02T02:25:01;8.20;99.90
20182;DHT22;10250;50.756;6.172;2024-03-02T02:27:02;8.20;99.90
20182;DHT22;10250;50.756;6.172;2024-03-02T02:29:02;8.20;1.00
20182;DHT22;10250;50.756;6.172;2024-03-02T02:31:03;8.20;1.00
20182;DHT22;10250;50.756;6.172;2024-03-02T02:33:04;8.30;1.00
20182;DHT22;10250;50.756;6.172;2024-03-02T02:35:05;8.20;1.00
20182;DHT22;10250;50.756;6.172;2024-03-02T02:37:06;8.20;99.90
20182;DHT22;10250;50.756;6.172;2024-03-02T02:39:11;8.20;99.90
20182;DHT22;10250;50.756;6.172;2024-03-02T02:41:13;8.30;99.90
20182;DHT22;10250;50.756;6.172;2024-03-02T02:43:14;8.20;1.00
20182;DHT22;10250;50.756;6.172;2024-03-02T02:45:15;8.10;1.00
20182;DHT22;10250;50.756;6.172;2024-03-02T02:47:15;8.10;1.00
20182;DHT22;10250;50.756;6.172;2024-03-02T02:49:16;8.10;1.00
20182;DHT22;10250;50.756;6.172;2024-03-02T02:51:17;8.10;1.00
20182;DHT22;10250;50.756;6.172;2024-03-02T02:53:18;8.10;1.00
20182;DHT22;10250;50.756;6.172;2024-03-02T02:55:18;8.00;99.90
20182;DHT22;10250;50.756;6.172;2024-03-02T02:57:19;7.90;99.90
20182;DHT22;10250;50.756;6.172;2024-03-02T02:59:19;7.90;99.90
20182;DHT22;10250;50.756;6.172;2024-03-02T03:01:20;7.90;99.90
20182;DHT22;10250;50.756;6.172;2024-03-02T03:03:21;7.90;99.90
20182;DHT22;10250;50.756;6.172;2024-03-02T03:05:21;7.90;99.90
20182;DHT22;10250;50.756;6.172;2024-03-02T03:07:22;7.90;99.90
20182;DHT22;10250;50.756;6.172;2024-03-02T03:09:22;7.80;99.90
20182;DHT22;10250;50.756;6.172;2024-03-02T03:11:23;7.90;99.90
20182;DHT22;10250;50.756;6.172;2024-03-02T03:13:25;7.80;99.90
20182;DHT22;10250;50.756;6.172;2024-03-02T03:15:25;7.80;99.90
20182;DHT22;10250;50.756;6.172;2024-03-02T03:17:26;7.80;99.90
20182;DHT22;10250;50.756;6.172;2024-03-02T03:19:30;7.80;99.90
20182;DHT22;10250;50.756;6.172;2024-03-02T03:21:31;7.80;99.90
20182;DHT22;10250;50.756;6.172;2024-03-02T03:23:31;7.80;99.90
20182;DHT22;10250;50.756;6.172;2024-03-02T03:25:32;7.80;99.90
20182;DHT22;10250;50.756;6.172;2024-03-02T03:27:33;7.80;99.90
20182;DHT22;10250;50.756;6.172;2024-03-02T03:29:33;7.80;99.90
20182;DHT22;10250;50.756;6.172;2024-03-02T03:31:34;7.80;99.90
20182;DHT22;10250;50.756;6.172;2024-03-02T03:33:34;7.80;99.90
20182;DHT22;10250;50.756;6.172;2024-03-02T03:35:35;7.70;99.90
20182;DHT22;10250;50.756;6.172;2024-03-02T03:37:36;7.70;99.90
20182;DHT22;10250;50.756;6.172;2024-03-02T03:39:37;7.70;99.90
20182;DHT22;10250;50.756;6.172;2024-03-02T03:41:37;7.60;99.90
20182;DHT22;10250;50.756;6.172;2024-03-02T03:43:38;7.60;99.90
20182;DHT22;10250;50.756;6.172;2024-03-02T03:45:39;7.60;99.90
20182;DHT22;10250;50.756;6.172;2024-03-02T03:47:39;7.60;99.90
20182;DHT22;10250;50.756;6.172;2024-03-02T03:49:40;7.60;99.90
20182;DHT22;10250;50.756;6.172;2024-03-02T03:51:40;7.60;99.90
20182;DHT22;10250;50.756;6.172;2024-03-02T03:53:41;7.70;99.90
20182;DHT22;10250;50.756;6.172;2024-03-02T03:55:41;7.60;99.90
20182;DHT22;10250;50.756;6.172;2024-03-02T03:57:42;7.60;99.90
20182;DHT22;10250;50.756;6.172;2024-03-02T03:59:43;7.60;99.90
20182;DHT22;10250;50.756;6.172;2024-03-02T04:01:44;7.60;99.90
20182;DHT22;10250;50.756;6.172;2024-03-02T04:03:45;7.50;99.90
20182;DHT22;10250;50.756;6.172;2024-03-02T04:05:46;7.50;99.90
20182;DHT22;10250;50.756;6.172;2024-03-02T04:07:46;7.40;99.90
20182;DHT22;10250;50.756;6.172;2024-03-02T04:09:47;7.50;99.90
20182;DHT22;10250;50.756;6.172;2024-03-02T04:11:47;7.50;99.90
20182;DHT22;10250;50.756;6.172;2024-03-02T04:13:48;7.50;99.90
20182;DHT22;10250;50.756;6.172;2024-03-02T04:15:48;7.50;99.90
20182;DHT22;10250;50.756;6.172;2024-03-02T04:17:49;7.50;99.90
20182;DHT22;10250;50.756;6.172;2024-03-02T04:19:49;7.50;99.90
20182;DHT22;10250;50.756;6.172;2024-03-02T04:21:50;7.40;99.90
20182;DHT22;10250;50.756;6.172;2024-03-02T04:23:50;7.50;99.90
20182;DHT22;10250;50.756;6.172;2024-03-02T04:25:52;7.50;99.90
20182;DHT22;10250;50.756;6.172;2024-03-02T04:27:52;7.50;99.90
20182;DHT22;10250;50.756;6.172;2024-03-02T04:29:53;7.60;99.90
20182;DHT22;10250;50.756;6.172;2024-03-02T04:31:53;7.60;99.90
20182;DHT22;10250;50.756;6.172;2024-03-02T04:33:54;7.60;99.90
20182;DHT22;10250;50.756;6.172;2024-03-02T04:35:54;7.50;99.90
20182;DHT22;10250;50.756;6.172;2024-03-02T04:37:55;7.50;99.90
20182;DHT22;10250;50.756;6.172;2024-03-02T04:39:55;7.50;99.90
20182;DHT22;10250;50.756;6.172;2024-03-02T04:41:56;7.50;99.90
20182;DHT22;10250;50.756;6.172;2024-03-02T04:43:57;7.50;99.90
20182;DHT22;10250;50.756;6.172;2024-03-02T04:45:58;7.50;99.90
20182;DHT22;10250;50.756;6.172;2024-03-02T04:47:59;7.50;99.90
20182;DHT22;10250;50.756;6.172;2024-03-02T04:49:59;7.50;99.90
20182;DHT22;10250;50.756;6.172;2024-03-02T04:52:00;7.60;99.90
20182;DHT22;10250;50.756;6.172;2024-03-02T04:54:00;7.50;99.90
20182;DHT22;10250;50.756;6.172;2024-03-02T04:56:01;7.50;99.90
20182;DHT22;10250;50.756;6.172;2024-03-02T04:58:24;7.50;99.90
20182;DHT22;10250;50.756;6.172;2024-03-02T05:00:24;7.50;99.90
20182;DHT22;10250;50.756;6.172;2024-03-02T05:02:25;7.50;99.90
20182;DHT22;10250;50.756;6.172;2024-03-02T05:04:26;7.50;99.90
20182;DHT22;10250;50.756;6.172;2024-03-02T05:06:26;7.50;99.90
20182;DHT22;10250;50.756;6.172;2024-03-02T05:08:27;7.50;99.90
20182;DHT22;10250;50.756;6.172;2024-03-02T05:10:27;7.50;99.90
20182;DHT22;10250;50.756;6.172;2024-03-02T05:12:28;7.50;99.90
20182;DHT22;10250;50.756;6.172;2024-03-02T05:14:43;7.50;99.90
20182;DHT22;10250;50.756;6.172;2024-03-02T05:16:44;7.40;99.90
20182;DHT22;10250;50.756;6.172;2024-03-02T05:18:44;7.40;99.90
20182;DHT22;10250;50.756;6.172;2024-03-02T05:20:45;7.40;99.90
20182;DHT22;10250;50.756;6.172;2024-03-02T05:22:46;7.40;99.90
20182;DHT22;10250;50.756;6.172;2024-03-02T05:24:47;7.40;99.90
20182;DHT22;10250;50.756;6.172;2024-03-02T05:26:48;7.50;99.90
20182;DHT22;10250;50.756;6.172;2024-03-02T05:28:49;7.40;99.90
20182;DHT22;10250;50.756;6.172;2024-03-02T05:30:49;7.40;99.90
20182;DHT22;10250;50.756;6.172;2024-03-02T05:32:50;7.40;99.90
20182;DHT22;10250;50.756;6.172;2024-03-02T05:34:51;7.40;99.90
20182;DHT22;10250;50.756;6.172;2024-03-02T05:36:51;7.30;99.90
20182;DHT22;10250;50.756;6.172;2024-03-02T05:38:52;7.40;99.90
20182;DHT22;10250;50.756;6.172;2024-03-02T05:40:52;7.40;99.90
20182;DHT22;10250;50.756;6.172;2024-03-02T05:42:53;7.40;99.90
20182;DHT22;10250;50.756;6.172;2024-03-02T05:44:53;7.40;99.90
20182;DHT22;10250;50.756;6.172;2024-03-02T05:46:55;7.40;99.90
20182;DHT22;10250;50.756;6.172;2024-03-02T05:48:55;7.40;99.90
20182;DHT22;10250;50.756;6.172;2024-03-02T05:50:56;7.40;99.90
20182;DHT22;10250;50.756;6.172;2024-03-02T05:52:57;7.40;99.90
20182;DHT22;10250;50.756;6.172;2024-03-02T05:54:57;7.40;99.90
20182;DHT22;10250;50.756;6.172;2024-03-02T05:56:58;7.40;99.90
20182;DHT22;10250;50.756;6.172;2024-03-02T05:59:16;7.30;99.90
20182;DHT22;10250;50.756;6.172;2024-03-02T06:01:17;7.30;99.90
20182;DHT22;10250;50.756;6.172;2024-03-02T06:03:20;7.30;99.90
20182;DHT22;10250;50.756;6.172;2024-03-02T06:05:21;7.30;99.90
20182;DHT22;10250;50.756;6.172;2024-03-02T06:07:22;7.30;99.90
20182;DHT22;10250;50.756;6.172;2024-03-02T06:09:22;7.30;99.90
20182;DHT22;10250;50.756;6.172;2024-03-02T06:11:25;7.30;99.90
20182;DHT22;10250;50.756;6.172;2024-03-02T06:13:25;7.30;99.90
20182;DHT22;10250;50.756;6.172;2024-03-02T06:15:26;7.40;99.90
20182;DHT22;10250;50.756;6.172;2024-03-02T06:17:27;7.40;99.90
20182;DHT22;10250;50.756;6.172;2024-03-02T06:19:27;7.30;99.90
20182;DHT22;10250;50.756;6.172;2024-03-02T06:21:28;7.40;99.90
20182;DHT22;10250;50.756;6.172;2024-03-02T06:23:29;7.30;99.90
20182;DHT22;10250;50.756;6.172;2024-03-02T06:25:30;7.30;99.90
20182;DHT22;10250;50.756;6.172;2024-03-02T06:27:30;7.30;99.90
20182;DHT22;10250;50.756;6.172;2024-03-02T06:29:34;7.30;99.90
20182;DHT22;10250;50.756;6.172;2024-03-02T06:31:34;7.30;99.90
20182;DHT22;10250;50.756;6.172;2024-03-02T06:33:35;7.30;99.90
20182;DHT22;10250;50.756;6.172;2024-03-02T06:35:36;7.30;99.90
20182;DHT22;10250;50.756;6.172;2024-03-02T06:37:38;7.20;99.90
20182;DHT22;10250;50.756;6.172;2024-03-02T06:39:39;7.20;99.90
20182;DHT22;10250;50.756;6.172;2024-03-02T06:41:39;7.20;99.90
20182;DHT22;10250;50.756;6.172;2024-03-02T06:43:40;7.30;99.90
20182;DHT22;10250;50.756;6.172;2024-03-02T06:45:40;7.30;99.90
20182;DHT22;10250;50.756;6.172;2024-03-02T06:47:41;7.30;99.90
20182;DHT22;10250;50.756;6.172;2024-03-02T06:49:42;7.30;99.90
20182;DHT22;10250;50.756;6.172;2024-03-02T06:51:42;7.30;99.90
20182;DHT22;10250;50.756;6.172;2024-03-02T06:53:43;7.30;99.90
20182;DHT22;10250;50.756;6.172;2024-03-02T06:55:46;7.30;99.90
20182;DHT22;10250;50.756;6.172;2024-03-02T06:57:47;7.40;99.90
20182;DHT22;10250;50.756;6.172;2024-03-02T06:59:48;7.40;99.90
20182;DHT22;10250;50.756;6.172;2024-03-02T07:01:51;7.30;99.90
20182;DHT22;10250;50.756;6.172;2024-03-02T07:03:52;7.40;99.90
20182;DHT22;10250;50.756;6.172;2024-03-02T07:05:52;7.30;99.90
20182;DHT22;10250;50.756;6.172;2024-03-02T07:07:53;7.30;99.90
20182;DHT22;10250;50.756;6.172;2024-03-02T07:09:53;7.30;99.90
20182;DHT22;10250;50.756;6.172;2024-03-02T07:11:54;7.20;99.90
20182;DHT22;10250;50.756;6.172;2024-03-02T07:13:54;7.30;99.90
20182;DHT22;10250;50.756;6.172;2024-03-02T07:15:55;7.30;99.90
20182;DHT22;10250;50.756;6.172;2024-03-02T07:18:04;7.30;99.90
20182;DHT22;10250;50.756;6.172;2024-03-02T07:20:05;7.30;99.90
20182;DHT22;10250;50.756;6.172;2024-03-02T07:22:07;7.40;99.90
20182;DHT22;10250;50.756;6.172;2024-03-02T07:24:08;7.40;99.90
20182;DHT22;10250;50.756;6.172;2024-03-02T07:26:13;7.40;99.90
20182;DHT22;10250;50.756;6.172;2024-03-02T07:28:13;7.40;99.90
20182;DHT22;10250;50.756;6.172;2024-03-02T07:30:15;7.40;99.90
20182;DHT22;10250;50.756;6.172;2024-03-02T07:32:16;7.40;99.90
20182;DHT22;10250;50.756;6.172;2024-03-02T07:34:17;7.40;99.90
20182;DHT22;10250;50.756;6.172;2024-03-02T07:36:17;7.40;99.90
20182;DHT22;10250;50.756;6.172;2024-03-02T07:38:19;7.40;99.90
20182;DHT22;10250;50.756;6.172;2024-03-02T07:40:20;7.40;99.90
20182;DHT22;10250;50.756;6.172;2024-03-02T07:42:21;7.40;99.90
20182;DHT22;10250;50.756;6.172;2024-03-02T07:44:21;7.40;99.90
20182;DHT22;10250;50.756;6.172;2024-03-02T07:46:22;7.40;99.90
20182;DHT22;10250;50.756;6.172;2024-03-02T07:48:23;7.30;99.90
20182;DHT22;10250;50.756;6.172;2024-03-02T07:50:23;7.30;99.90
20182;DHT22;10250;50.756;6.172;2024-03-02T07:52:24;7.40;99.90
20182;DHT22;10250;50.756;6.172;2024-03-02T07:54:24;7.40;99.90
20182;DHT22;10250;50.756;6.172;2024-03-02T07:56:25;7.50;99.90
20182;DHT22;10250;50.756;6.172;2024-03-02T07:58:26;7.60;99.90
20182;DHT22;10250;50.756;6.172;2024-03-02T08:00:26;7.70;99.90
20182;DHT22;10250;50.756;6.172;2024-03-02T08:02:28;7.70;99.90
20182;DHT22;10250;50.756;6.172;2024-03-02T08:04:28;7.70;99.90
20182;DHT22;10250;50.756;6.172;2024-03-02T08:06:29;7.80;99.90
20182;DHT22;10250;50.756;6.172;2024-03-02T08:08:30;7.80;99.90
20182;DHT22;10250;50.756;6.172;2024-03-02T08:10:30;7.90;99.90
20182;DHT22;10250;50.756;6.172;2024-03-02T08:12:31;7.90;99.90
20182;DHT22;10250;50.756;6.172;2024-03-02T08:14:31;7.90;99.90
20182;DHT22;10250;50.756;6.172;2024-03-02T08:16:32;7.90;99.90
20182;DHT22;10250;50.756;6.172;2024-03-02T08:18:34;8.00;99.90
20182;DHT22;10250;50.756;6.172;2024-03-02T08:20:35;8.00;99.90
20182;DHT22;10250;50.756;6.172;2024-03-02T08:22:35;8.10;99.90
20182;DHT22;10250;50.756;6.172;2024-03-02T08:24:36;8.10;99.90
20182;DHT22;10250;50.756;6.172;2024-03-02T08:26:36;8.20;99.90
20182;DHT22;10250;50.756;6.172;2024-03-02T08:28:37;8.20;99.90
20182;DHT22;10250;50.756;6.172;2024-03-02T08:30:38;8.30;99.90
20182;DHT22;10250;50.756;6.172;2024-03-02T08:32:38;8.20;99.90
20182;DHT22;10250;50.756;6.172;2024-03-02T08:34:39;8.30;99.90
20182;DHT22;10250;50.756;6.172;2024-03-02T08:36:39;8.30;99.90
20182;DHT22;10250;50.756;6.172;2024-03-02T08:38:40;8.20;99.90
20182;DHT22;10250;50.756;6.172;2024-03-02T08:40:41;8.20;99.90
20182;DHT22;10250;50.756;6.172;2024-03-02T08:42:42;8.20;99.90
20182;DHT22;10250;50.756;6.172;2024-03-02T08:44:43;8.20;99.90
20182;DHT22;10250;50.756;6.172;2024-03-02T08:46:43;8.20;99.90
20182;DHT22;10250;50.756;6.172;2024-03-02T08:48:44;8.20;99.90
20182;DHT22;10250;50.756;6.172;2024-03-02T08:50:45;8.20;99.90
20182;DHT22;10250;50.756;6.172;2024-03-02T08:52:46;8.20;99.90
20182;DHT22;10250;50.756;6.172;2024-03-02T08:54:46;8.40;99.90
20182;DHT22;10250;50.756;6.172;2024-03-02T08:56:47;8.50;99.90
20182;DHT22;10250;50.756;6.172;2024-03-02T08:58:48;8.60;99.90
20182;DHT22;10250;50.756;6.172;2024-03-02T09:00:49;8.60;99.90
20182;DHT22;10250;50.756;6.172;2024-03-02T09:02:50;8.70;99.90
20182;DHT22;10250;50.756;6.172;2024-03-02T09:04:51;8.80;99.90
20182;DHT22;10250;50.756;6.172;2024-03-02T09:06:51;8.80;99.90
20182;DHT22;10250;50.756;6.172;2024-03-02T09:08:52;8.90;99.90
20182;DHT22;10250;50.756;6.172;2024-03-02T09:10:53;9.10;99.90
20182;DHT22;10250;50.756;6.172;2024-03-02T09:12:53;9.00;1.00
20182;DHT22;10250;50.756;6.172;2024-03-02T09:14:54;9.10;1.00
20182;DHT22;10250;50.756;6.172;2024-03-02T09:16:54;9.10;1.00
20182;DHT22;10250;50.756;6.172;2024-03-02T09:18:55;9.20;1.00
20182;DHT22;10250;50.756;6.172;2024-03-02T09:20:56;9.20;99.90
20182;DHT22;10250;50.756;6.172;2024-03-02T09:22:56;9.30;99.90
20182;DHT22;10250;50.756;6.172;2024-03-02T09:24:57;9.40;99.90
20182;DHT22;10250;50.756;6.172;2024-03-02T09:26:57;9.40;99.90
20182;DHT22;10250;50.756;6.172;2024-03-02T09:28:58;9.40;99.90
20182;DHT22;10250;50.756;6.172;2024-03-02T09:31:00;9.50;99.90
20182;DHT22;10250;50.756;6.172;2024-03-02T09:33:01;9.50;99.90
20182;DHT22;10250;50.756;6.172;2024-03-02T09:35:02;9.60;99.90
20182;DHT22;10250;50.756;6.172;2024-03-02T09:37:02;9.70;99.90
20182;DHT22;10250;50.756;6.172;2024-03-02T09:39:04;9.70;99.90
20182;DHT22;10250;50.756;6.172;2024-03-02T09:41:05;9.70;99.90
20182;DHT22;10250;50.756;6.172;2024-03-02T09:43:05;9.70;99.90
20182;DHT22;10250;50.756;6.172;2024-03-02T09:45:08;9.70;99.90
20182;DHT22;10250;50.756;6.172;2024-03-02T09:47:09;9.70;99.90
20182;DHT22;10250;50.756;6.172;2024-03-02T09:49:12;9.80;99.90
20182;DHT22;10250;50.756;6.172;2024-03-02T09:51:13;9.90;99.90
20182;DHT22;10250;50.756;6.172;2024-03-02T09:53:14;9.90;99.90
20182;DHT22;10250;50.756;6.172;2024-03-02T09:55:15;9.90;99.90
20182;DHT22;10250;50.756;6.172;2024-03-02T09:57:17;9.90;99.90
20182;DHT22;10250;50.756;6.172;2024-03-02T09:59:18;10.00;99.90
20182;DHT22;10250;50.756;6.172;2024-03-02T10:01:20;10.10;99.90
20182;DHT22;10250;50.756;6.172;2024-03-02T10:03:22;10.10;99.90
20182;DHT22;10250;50.756;6.172;2024-03-02T10:05:25;10.10;99.90
20182;DHT22;10250;50.756;6.172;2024-03-02T10:07:26;10.20;99.90
20182;DHT22;10250;50.756;6.172;2024-03-02T10:09:27;10.20;99.90
20182;DHT22;10250;50.756;6.172;2024-03-02T10:11:31;10.20;99.90
20182;DHT22;10250;50.756;6.172;2024-03-02T10:13:33;10.20;99.90
20182;DHT22;10250;50.756;6.172;2024-03-02T10:15:35;10.30;99.90
20182;DHT22;10250;50.756;6.172;2024-03-02T10:17:37;10.30;99.90
20182;DHT22;10250;50.756;6.172;2024-03-02T10:19:39;10.30;99.90
20182;DHT22;10250;50.756;6.172;2024-03-02T10:21:40;10.30;99.90
20182;DHT22;10250;50.756;6.172;2024-03-02T10:23:41;10.30;99.90
20182;DHT22;10250;50.756;6.172;2024-03-02T10:25:42;10.30;99.90
20182;DHT22;10250;50.756;6.172;2024-03-02T10:27:43;10.40;99.90
20182;DHT22;10250;50.756;6.172;2024-03-02T10:29:47;10.40;99.90
20182;DHT22;10250;50.756;6.172;2024-03-02T10:31:48;10.50;99.90
20182;DHT22;10250;50.756;6.172;2024-03-02T10:33:49;10.40;99.90
20182;DHT22;10250;50.756;6.172;2024-03-02T10:35:50;10.30;99.90
20182;DHT22;10250;50.756;6.172;2024-03-02T10:37:51;10.40;99.90
20182;DHT22;10250;50.756;6.172;2024-03-02T10:39:52;10.60;99.90
20182;DHT22;10250;50.756;6.172;2024-03-02T10:41:53;10.60;99.90
20182;DHT22;10250;50.756;6.172;2024-03-02T10:43:56;10.60;99.90
20182;DHT22;10250;50.756;6.172;2024-03-02T10:45:59;10.70;99.90
20182;DHT22;10250;50.756;6.172;2024-03-02T10:48:01;10.70;99.90
20182;DHT22;10250;50.756;6.172;2024-03-02T10:50:04;10.70;99.90
20182;DHT22;10250;50.756;6.172;2024-03-02T10:52:08;10.80;99.90
20182;DHT22;10250;50.756;6.172;2024-03-02T10:54:09;11.00;99.90
20182;DHT22;10250;50.756;6.172;2024-03-02T10:56:13;11.00;99.90
20182;DHT22;10250;50.756;6.172;2024-03-02T10:58:17;11.00;99.90
20182;DHT22;10250;50.756;6.172;2024-03-02T11:00:19;11.00;99.90
20182;DHT22;10250;50.756;6.172;2024-03-02T11:02:25;11.10;99.90
20182;DHT22;10250;50.756;6.172;2024-03-02T11:04:29;11.20;99.90
20182;DHT22;10250;50.756;6.172;2024-03-02T11:06:32;11.20;99.90
20182;DHT22;10250;50.756;6.172;2024-03-02T11:08:34;11.10;99.90
20182;DHT22;10250;50.756;6.172;2024-03-02T11:10:49;11.20;99.90
20182;DHT22;10250;50.756;6.172;2024-03-02T11:13:02;11.30;99.90
20182;DHT22;10250;50.756;6.172;2024-03-02T11:15:05;11.30;99.90
20182;DHT22;10250;50.756;6.172;2024-03-02T11:17:10;11.30;99.90
20182;DHT22;10250;50.756;6.172;2024-03-02T11:19:16;11.20;99.90
20182;DHT22;10250;50.756;6.172;2024-03-02T11:21:17;11.40;99.90
20182;DHT22;10250;50.756;6.172;2024-03-02T11:23:18;11.40;99.90
20182;DHT22;10250;50.756;6.172;2024-03-02T11:25:28;11.50;99.90
20182;DHT22;10250;50.756;6.172;2024-03-02T11:28:01;11.50;99.90
20182;DHT22;10250;50.756;6.172;2024-03-02T11:30:02;11.60;99.90
20182;DHT22;10250;50.756;6.172;2024-03-02T11:32:04;11.60;99.90
20182;DHT22;10250;50.756;6.172;2024-03-02T11:34:25;11.60;99.90
20182;DHT22;10250;50.756;6.172;2024-03-02T11:36:29;11.70;99.90
20182;DHT22;10250;50.756;6.172;2024-03-02T11:38:31;11.60;99.90
20182;DHT22;10250;50.756;6.172;2024-03-02T11:40:32;11.60;99.90
20182;DHT22;10250;50.756;6.172;2024-03-02T11:42:33;11.50;99.90
20182;DHT22;10250;50.756;6.172;2024-03-02T11:44:34;11.50;99.90
20182;DHT22;10250;50.756;6.172;2024-03-02T11:46:35;11.60;99.90
20182;DHT22;10250;50.756;6.172;2024-03-02T11:48:36;11.60;99.90
20182;DHT22;10250;50.756;6.172;2024-03-02T11:50:47;11.70;99.90
20182;DHT22;10250;50.756;6.172;2024-03-02T11:52:49;11.80;99.90
20182;DHT22;10250;50.756;6.172;2024-03-02T11:54:50;11.80;99.90
20182;DHT22;10250;50.756;6.172;2024-03-02T11:56:52;11.80;99.90
20182;DHT22;10250;50.756;6.172;2024-03-02T11:58:54;11.70;99.90
20182;DHT22;10250;50.756;6.172;2024-03-02T12:00:55;11.70;99.90
20182;DHT22;10250;50.756;6.172;2024-03-02T12:03:10;11.70;99.90
20182;DHT22;10250;50.756;6.172;2024-03-02T12:05:13;11.70;99.90
20182;DHT22;10250;50.756;6.172;2024-03-02T12:07:22;11.80;99.90
20182;DHT22;10250;50.756;6.172;2024-03-02T12:09:23;11.80;99.90
20182;DHT22;10250;50.756;6.172;2024-03-02T12:11:23;11.80;99.90
20182;DHT22;10250;50.756;6.172;2024-03-02T12:13:24;11.80;99.90
20182;DHT22;10250;50.756;6.172;2024-03-02T12:15:33;11.80;99.90
20182;DHT22;10250;50.756;6.172;2024-03-02T12:17:33;11.80;99.90
20182;DHT22;10250;50.756;6.172;2024-03-02T12:19:34;11.90;99.90
20182;DHT22;10250;50.756;6.172;2024-03-02T12:21:35;11.90;99.90
20182;DHT22;10250;50.756;6.172;2024-03-02T12:23:35;11.90;99.90
20182;DHT22;10250;50.756;6.172;2024-03-02T12:25:36;12.10;99.90
20182;DHT22;10250;50.756;6.172;2024-03-02T12:27:38;12.10;99.90
20182;DHT22;10250;50.756;6.172;2024-03-02T12:29:39;12.10;99.90
20182;DHT22;10250;50.756;6.172;2024-03-02T12:31:40;12.20;99.90
20182;DHT22;10250;50.756;6.172;2024-03-02T12:33:41;12.20;99.90
20182;DHT22;10250;50.756;6.172;2024-03-02T12:35:42;12.10;99.90
20182;DHT22;10250;50.756;6.172;2024-03-02T12:37:48;12.10;99.90
20182;DHT22;10250;50.756;6.172;2024-03-02T12:39:49;12.20;99.90
20182;DHT22;10250;50.756;6.172;2024-03-02T12:41:50;12.20;99.90
20182;DHT22;10250;50.756;6.172;2024-03-02T12:43:51;12.20;99.90
20182;DHT22;10250;50.756;6.172;2024-03-02T12:45:53;12.20;99.90
20182;DHT22;10250;50.756;6.172;2024-03-02T12:47:56;12.10;99.90
20182;DHT22;10250;50.756;6.172;2024-03-02T12:49:56;12.20;99.90
20182;DHT22;10250;50.756;6.172;2024-03-02T12:51:57;12.20;99.90
20182;DHT22;10250;50.756;6.172;2024-03-02T12:53:58;12.20;99.90
20182;DHT22;10250;50.756;6.172;2024-03-02T12:55:59;12.10;99.90
20182;DHT22;10250;50.756;6.172;2024-03-02T12:58:00;12.00;99.90
20182;DHT22;10250;50.756;6.172;2024-03-02T13:00:06;12.10;99.90